Time;durP1;ratioP1;P1;durP2;ratioP2;P2;SDS_P1;SDS_P2;PMS_P1;PMS_P2;Temp;Humidity;BMP_temperature;BMP_pressure;BME280_temperature;BME280_humidity;BME280_pressure;Samples;Min_cycle;Max_cycle;Signal;HPM_P1;HPM_P2
2021/04/10 00:01:19;;;;;;;8.43;6.63;;;17.50;35.00;;;;;;5020119;28;20435;-49
2021/04/10 00:03:45;;;;;;;6.40;5.80;;;17.30;36.30;;;;;;5027469;28;20225;-46
2021/04/10 00:06:12;;;;;;;5.33;4.83;;;17.00;36.80;;;;;;5016515;28;20646;-49
2021/04/10 00:08:38;;;;;;;11.67;4.87;;;17.00;36.00;;;;;;5025217;28;20210;-48
2021/04/10 00:11:04;;;;;;;8.33;4.27;;;17.10;35.80;;;;;;5023013;28;20515;-45
2021/04/10 00:13:30;;;;;;;7.80;4.57;;;16.90;36.10;;;;;;5022441;28;20469;-47
2021/04/10 00:15:56;;;;;;;5.50;4.60;;;16.80;36.10;;;;;;5022994;28;20494;-48
2021/04/10 00:18:21;;;;;;;7.57;4.60;;;16.90;36.30;;;;;;5023280;28;20471;-49
2021/04/10 00:20:47;;;;;;;8.23;4.70;;;16.90;36.20;;;;;;5029620;28;20260;-46
2021/04/10 00:23:12;;;;;;;5.33;3.77;;;17.00;35.70;;;;;;5021158;28;20186;-49
2021/04/10 00:25:38;;;;;;;6.60;4.03;;;17.00;35.20;;;;;;5019800;28;20224;-48
2021/04/10 00:28:04;;;;;;;4.20;3.63;;;17.10;34.80;;;;;;5022497;28;20201;-47
2021/04/10 00:30:29;;;;;;;3.60;3.30;;;17.20;34.60;;;;;;5028672;28;20205;-47
2021/04/10 00:32:56;;;;;;;4.73;2.90;;;17.30;34.40;;;;;;5022423;28;20452;-48
2021/04/10 00:35:21;;;;;;;3.73;3.20;;;17.40;34.30;;;;;;5024266;28;20282;-48
2021/04/10 00:37:47;;;;;;;5.60;3.93;;;17.50;34.20;;;;;;5016921;28;20471;-45
2021/04/10 00:40:13;;;;;;;5.17;3.47;;;17.40;34.10;;;;;;5018114;28;20228;-44
2021/04/10 00:42:39;;;;;;;5.20;2.93;;;17.50;33.90;;;;;;5015003;28;20202;-48
2021/04/10 00:45:06;;;;;;;3.53;3.03;;;17.50;33.70;;;;;;5017377;28;20433;-47
2021/04/10 00:47:32;;;;;;;4.80;3.40;;;17.50;33.60;;;;;;5025049;28;20461;-46
2021/04/10 00:49:58;;;;;;;4.27;2.90;;;17.50;33.50;;;;;;5024313;28;20570;-48
2021/04/10 00:52:24;;;;;;;3.13;2.83;;;17.60;33.60;;;;;;5022253;28;20196;-47
2021/04/10 00:54:50;;;;;;;5.53;3.20;;;17.60;34.00;;;;;;5026481;28;20440;-45
2021/04/10 00:57:18;;;;;;;5.27;2.93;;;17.60;33.70;;;;;;5019109;28;20441;-49
2021/04/10 00:59:45;;;;;;;4.60;2.70;;;17.50;33.30;;;;;;5024602;28;20494;-49
2021/04/10 01:02:12;;;;;;;6.37;2.70;;;17.40;33.40;;;;;;5024795;28;20432;-48
2021/04/10 01:04:37;;;;;;;4.37;3.00;;;17.40;33.40;;;;;;5020291;28;20439;-49
2021/04/10 01:07:03;;;;;;;7.17;3.77;;;17.50;33.70;;;;;;5024600;28;20444;-46
2021/04/10 01:09:30;;;;;;;4.37;2.90;;;17.50;33.90;;;;;;5025789;28;20231;-49
2021/04/10 01:12:37;;;;;;;4.30;3.83;;;17.50;34.40;;;;;;5016510;28;20443;-44
2021/04/10 01:15:17;;;;;;;4.70;3.77;;;17.30;35.00;;;;;;4990206;28;20432;-45
2021/04/10 01:18:03;;;;;;;5.57;3.90;;;17.20;35.30;;;;;;5023801;28;20906;-49
2021/04/10 01:20:44;;;;;;;7.43;3.07;;;17.10;35.10;;;;;;5024451;28;20857;-48
2021/04/10 01:23:43;;;;;;;4.07;2.93;;;16.90;34.80;;;;;;5021651;28;20436;-48
2021/04/10 01:26:22;;;;;;;4.97;2.80;;;16.80;34.90;;;;;;5018558;28;20935;-47
2021/04/10 01:28:58;;;;;;;7.57;4.40;;;16.70;35.40;;;;;;5022342;28;20472;-44
2021/04/10 01:31:36;;;;;;;7.50;4.30;;;16.50;37.00;;;;;;5017617;28;20444;-44
2021/04/10 01:34:06;;;;;;;12.37;3.87;;;16.50;39.20;;;;;;5022237;28;20785;-45
2021/04/10 01:36:35;;;;;;;3.90;3.27;;;16.60;38.10;;;;;;5020617;28;20444;-44
2021/04/10 01:39:04;;;;;;;5.67;4.20;;;16.50;36.80;;;;;;5020648;28;20475;-44
2021/04/10 01:41:33;;;;;;;4.60;3.47;;;16.40;37.60;;;;;;5026946;28;20776;-44
2021/04/10 01:43:59;;;;;;;3.90;3.23;;;16.10;37.80;;;;;;5023169;28;20508;-44
2021/04/10 01:46:26;;;;;;;5.00;4.13;;;16.10;37.70;;;;;;5021536;28;20432;-44
2021/04/10 01:48:53;;;;;;;11.70;4.33;;;15.90;38.70;;;;;;5026013;28;20439;-44
2021/04/10 01:51:19;;;;;;;4.97;3.63;;;15.90;39.60;;;;;;5016349;28;20429;-44
2021/04/10 01:53:47;;;;;;;9.73;4.37;;;15.80;39.30;;;;;;5025482;28;20527;-44
2021/04/10 01:56:13;;;;;;;3.97;3.50;;;15.80;39.20;;;;;;5023133;28;20465;-44
2021/04/10 01:58:42;;;;;;;4.70;3.90;;;16.00;39.00;;;;;;5018705;28;20473;-45
2021/04/10 02:01:10;;;;;;;4.47;3.50;;;16.10;38.30;;;;;;5020283;28;20511;-44
2021/04/10 02:03:36;;;;;;;3.30;2.97;;;16.20;38.20;;;;;;5027591;28;20444;-48
2021/04/10 02:06:03;;;;;;;3.60;2.77;;;16.40;37.80;;;;;;5025928;28;20846;-48
2021/04/10 02:08:30;;;;;;;3.70;2.77;;;16.40;37.50;;;;;;5023515;28;20438;-47
2021/04/10 02:11:00;;;;;;;4.43;2.00;;;16.50;37.30;;;;;;5029541;28;20431;-48
2021/04/10 02:13:29;;;;;;;2.33;1.90;;;16.40;36.70;;;;;;5020835;28;20464;-44
2021/04/10 02:15:55;;;;;;;2.83;1.63;;;16.40;36.60;;;;;;5025442;28;20956;-45
2021/04/10 02:18:21;;;;;;;3.57;2.10;;;16.50;36.40;;;;;;5019319;28;20468;-47
2021/04/10 02:20:47;;;;;;;2.73;2.13;;;16.70;36.20;;;;;;5021378;28;20274;-49
2021/04/10 02:23:14;;;;;;;5.00;2.67;;;16.80;36.00;;;;;;5025547;28;20932;-46
2021/04/10 02:25:40;;;;;;;4.17;1.63;;;16.90;35.90;;;;;;5018783;28;20566;-44
2021/04/10 02:28:06;;;;;;;4.50;2.00;;;16.70;35.90;;;;;;5016866;28;20524;-49
2021/04/10 02:30:32;;;;;;;6.20;2.30;;;16.90;35.80;;;;;;5024623;28;20253;-45
2021/04/10 02:33:06;;;;;;;3.50;2.10;;;16.90;35.60;;;;;;5024812;28;20440;-49
2021/04/10 02:35:34;;;;;;;3.63;2.00;;;16.90;35.60;;;;;;5026414;28;20201;-44
2021/04/10 02:38:00;;;;;;;3.70;1.90;;;16.90;35.60;;;;;;5024459;28;20868;-48
2021/04/10 02:40:35;;;;;;;5.20;2.10;;;16.90;35.60;;;;;;5027998;28;21006;-48
2021/04/10 02:43:03;;;;;;;4.53;1.83;;;17.00;35.70;;;;;;5016734;28;20515;-48
2021/04/10 02:45:29;;;;;;;3.40;1.77;;;17.00;35.50;;;;;;5029710;28;20432;-50
2021/04/10 02:48:12;;;;;;;2.80;1.67;;;17.10;35.40;;;;;;5030826;28;20454;-46
2021/04/10 02:50:38;;;;;;;2.30;1.53;;;17.10;35.60;;;;;;5033495;28;20255;-44
2021/04/10 02:53:07;;;;;;;1.90;1.70;;;17.10;35.90;;;;;;5020762;28;20424;-48
2021/04/10 02:55:39;;;;;;;2.80;1.43;;;16.90;36.00;;;;;;5029748;28;20438;-46
2021/04/10 02:58:07;;;;;;;2.70;2.20;;;16.90;36.10;;;;;;5023162;28;20460;-44
2021/04/10 03:00:34;;;;;;;3.10;1.60;;;16.90;36.00;;;;;;5028561;28;20523;-45
2021/04/10 03:03:02;;;;;;;1.97;1.77;;;16.80;36.20;;;;;;5023740;28;20432;-48
2021/04/10 03:05:29;;;;;;;4.10;2.10;;;16.90;36.00;;;;;;5024191;28;20874;-49
2021/04/10 03:07:56;;;;;;;3.10;1.60;;;16.80;36.20;;;;;;5027299;28;20432;-48
2021/04/10 03:10:22;;;;;;;2.97;1.57;;;16.80;36.10;;;;;;5031252;28;20440;-47
2021/04/10 03:12:48;;;;;;;2.93;1.80;;;16.70;36.10;;;;;;5026460;28;20441;-49
2021/04/10 03:15:18;;;;;;;6.40;1.70;;;16.60;36.20;;;;;;5026483;28;20495;-45
2021/04/10 03:17:45;;;;;;;2.20;1.17;;;16.80;36.30;;;;;;5029930;28;20229;-46
2021/04/10 03:20:15;;;;;;;2.40;1.73;;;16.60;36.30;;;;;;5024276;28;20480;-49
2021/04/10 03:22:42;;;;;;;2.47;1.53;;;16.60;36.40;;;;;;5024187;28;20448;-45
2021/04/10 03:25:09;;;;;;;4.13;1.53;;;16.70;36.50;;;;;;5022657;28;20793;-45
2021/04/10 03:27:35;;;;;;;3.87;1.57;;;16.60;36.50;;;;;;5029162;28;20535;-45
2021/04/10 03:30:01;;;;;;;2.60;1.60;;;16.50;36.50;;;;;;5023006;28;20437;-48
2021/04/10 03:32:28;;;;;;;1.43;1.30;;;16.60;36.50;;;;;;5021699;28;20468;-49
2021/04/10 03:34:55;;;;;;;2.43;1.60;;;16.70;36.40;;;;;;5027500;28;20420;-49
2021/04/10 03:37:20;;;;;;;2.93;1.67;;;16.70;36.50;;;;;;5025054;28;20436;-45
2021/04/10 03:39:46;;;;;;;3.40;2.13;;;16.70;36.30;;;;;;5025159;28;20483;-45
2021/04/10 03:42:12;;;;;;;1.77;1.67;;;16.80;36.40;;;;;;5024252;28;20541;-46
2021/04/10 03:44:38;;;;;;;2.10;1.47;;;16.90;36.30;;;;;;5025866;28;20952;-48
2021/04/10 03:47:05;;;;;;;3.80;1.53;;;17.00;36.60;;;;;;5029903;28;20437;-47
2021/04/10 03:49:30;;;;;;;4.93;2.03;;;17.00;36.90;;;;;;5025295;28;20597;-49
2021/04/10 03:51:56;;;;;;;2.90;1.80;;;17.00;37.20;;;;;;5026484;28;20535;-48
2021/04/10 03:54:21;;;;;;;2.83;1.60;;;17.00;36.50;;;;;;5031679;28;20205;-46
2021/04/10 03:56:47;;;;;;;3.40;2.17;;;17.10;37.30;;;;;;5022898;28;20212;-46
2021/04/10 03:59:13;;;;;;;2.70;1.90;;;17.10;37.80;;;;;;5015997;28;20206;-44
2021/04/10 04:01:39;;;;;;;3.50;1.43;;;17.10;38.10;;;;;;5024056;28;20209;-49
2021/04/10 04:04:05;;;;;;;2.97;1.87;;;17.20;38.70;;;;;;5019673;28;20875;-47
2021/04/10 04:06:30;;;;;;;1.70;1.57;;;17.20;40.00;;;;;;5017513;28;20193;-44
2021/04/10 04:08:56;;;;;;;4.30;1.93;;;17.20;40.70;;;;;;5029964;28;20204;-43
2021/04/10 04:11:21;;;;;;;3.87;1.80;;;17.20;39.80;;;;;;5027676;28;20205;-46
2021/04/10 04:13:47;;;;;;;2.53;1.80;;;17.20;39.90;;;;;;5026893;28;20201;-45
2021/04/10 04:16:12;;;;;;;3.17;1.60;;;17.20;39.60;;;;;;5021965;28;20196;-44
2021/04/10 04:18:38;;;;;;;3.60;1.60;;;17.20;40.70;;;;;;5015559;28;20226;-44
2021/04/10 04:21:04;;;;;;;3.07;1.50;;;17.20;40.00;;;;;;5024119;28;20221;-46
2021/04/10 04:23:29;;;;;;;3.40;1.67;;;17.20;40.40;;;;;;5029798;28;20208;-47
2021/04/10 04:25:55;;;;;;;2.27;1.87;;;17.10;40.60;;;;;;5016845;28;20260;-45
2021/04/10 04:28:21;;;;;;;3.00;1.60;;;17.20;40.30;;;;;;5016591;28;20190;-45
2021/04/10 04:30:47;;;;;;;4.40;1.40;;;16.90;40.20;;;;;;5017212;28;20444;-46
2021/04/10 04:33:12;;;;;;;1.43;1.33;;;16.60;40.80;;;;;;5029985;28;20187;-44
2021/04/10 04:35:38;;;;;;;2.20;1.47;;;16.60;40.70;;;;;;5027430;28;20235;-44
2021/04/10 04:38:04;;;;;;;4.57;1.53;;;16.40;40.60;;;;;;5027814;28;20189;-44
2021/04/10 04:40:29;;;;;;;2.40;1.60;;;16.30;40.80;;;;;;5033285;28;20221;-44
2021/04/10 04:42:55;;;;;;;8.23;2.10;;;16.10;41.50;;;;;;5029431;28;20688;-44
2021/04/10 04:45:21;;;;;;;1.90;1.20;;;16.10;41.40;;;;;;5029110;28;20189;-44
2021/04/10 04:47:46;;;;;;;1.30;1.20;;;16.20;41.50;;;;;;5030089;28;20213;-44
2021/04/10 04:50:12;;;;;;;4.83;1.67;;;16.00;41.60;;;;;;5024590;28;20194;-44
2021/04/10 04:52:38;;;;;;;2.60;1.37;;;16.00;41.90;;;;;;5016685;28;20693;-44
2021/04/10 04:55:04;;;;;;;1.50;1.10;;;16.00;42.10;;;;;;5022202;28;20458;-45
2021/04/10 04:57:30;;;;;;;1.40;1.30;;;16.00;42.20;;;;;;5019823;28;20277;-44
2021/04/10 04:59:55;;;;;;;1.23;0.93;;;15.70;42.60;;;;;;5015916;28;20587;-44
2021/04/10 05:02:21;;;;;;;1.70;1.27;;;15.30;43.20;;;;;;5029460;28;20189;-44
2021/04/10 05:04:47;;;;;;;1.63;1.27;;;15.20;43.90;;;;;;5029646;28;20221;-46
2021/04/10 05:07:12;;;;;;;5.17;1.60;;;15.50;43.70;;;;;;5027122;28;20227;-46
2021/04/10 05:09:38;;;;;;;2.50;1.60;;;15.60;43.30;;;;;;5028898;28;20197;-46
2021/04/10 05:12:04;;;;;;;3.60;1.43;;;15.80;42.70;;;;;;5034140;28;20669;-43
2021/04/10 05:14:29;;;;;;;2.17;1.60;;;15.80;42.60;;;;;;5025456;28;20203;-44
2021/04/10 05:16:55;;;;;;;2.57;1.50;;;15.90;42.30;;;;;;5027535;28;20530;-43
2021/04/10 05:19:21;;;;;;;1.20;1.10;;;16.10;42.50;;;;;;5017104;28;20214;-44
2021/04/10 05:21:46;;;;;;;3.90;1.43;;;16.30;42.00;;;;;;5026654;28;20209;-43
2021/04/10 05:24:12;;;;;;;1.83;1.40;;;16.10;41.80;;;;;;5024976;28;20197;-44
2021/04/10 05:26:37;;;;;;;2.30;1.50;;;16.10;42.80;;;;;;5019158;28;20196;-44
2021/04/10 05:29:03;;;;;;;1.70;1.33;;;16.00;43.20;;;;;;5022034;28;20194;-45
2021/04/10 05:31:32;;;;;;;2.00;1.33;;;16.00;44.90;;;;;;5026977;28;20193;-42
2021/04/10 05:33:58;;;;;;;5.40;2.03;;;15.70;45.80;;;;;;5024225;28;20436;-43
2021/04/10 05:36:23;;;;;;;2.70;1.40;;;15.60;46.90;;;;;;5025577;28;21062;-43
2021/04/10 05:38:49;;;;;;;1.87;1.20;;;15.60;47.00;;;;;;5024426;28;20675;-43
2021/04/10 05:41:15;;;;;;;2.90;1.30;;;15.70;47.10;;;;;;5017108;28;20194;-46
2021/04/10 05:43:40;;;;;;;4.07;1.50;;;15.90;46.70;;;;;;5029927;28;20207;-43
2021/04/10 05:46:06;;;;;;;1.43;1.33;;;16.00;46.50;;;;;;5026568;28;20190;-44
2021/04/10 05:48:32;;;;;;;1.53;1.43;;;15.90;46.20;;;;;;5045203;28;20189;-43
2021/04/10 05:50:58;;;;;;;4.50;1.67;;;16.00;46.10;;;;;;5023705;28;20267;-44
2021/04/10 05:53:26;;;;;;;2.33;1.77;;;15.70;46.20;;;;;;5023547;28;20433;-43
2021/04/10 05:55:52;;;;;;;1.53;1.30;;;15.50;46.70;;;;;;5036759;28;20432;-43
2021/04/10 05:58:17;;;;;;;2.30;1.43;;;15.50;46.80;;;;;;5041624;28;20454;-45
2021/04/10 06:00:43;;;;;;;2.03;1.83;;;15.50;46.30;;;;;;5025529;28;20240;-44
2021/04/10 06:03:09;;;;;;;1.90;1.47;;;15.70;46.20;;;;;;5030771;28;20600;-44
2021/04/10 06:05:34;;;;;;;1.87;1.30;;;15.80;46.00;;;;;;5035575;28;20205;-44
2021/04/10 06:08:00;;;;;;;3.70;1.40;;;15.90;45.80;;;;;;5034885;28;20262;-43
2021/04/10 06:10:25;;;;;;;4.27;1.80;;;15.70;45.40;;;;;;5029584;28;20272;-44
2021/04/10 06:12:51;;;;;;;2.13;1.30;;;15.80;45.40;;;;;;5034449;28;20189;-43
2021/04/10 06:15:18;;;;;;;1.50;1.20;;;15.80;45.10;;;;;;5033897;28;20593;-43
2021/04/10 06:17:45;;;;;;;4.10;1.20;;;15.80;44.60;;;;;;5031282;28;20253;-43
2021/04/10 06:20:12;;;;;;;3.23;1.50;;;15.60;44.70;;;;;;5044565;28;20515;-47
2021/04/10 06:22:38;;;;;;;3.30;1.50;;;15.70;44.80;;;;;;5033048;28;20447;-46
2021/04/10 06:25:05;;;;;;;4.00;2.10;;;15.50;44.70;;;;;;5033705;28;20427;-43
2021/04/10 06:27:31;;;;;;;3.40;1.53;;;15.30;44.90;;;;;;5035015;28;20198;-46
2021/04/10 06:29:57;;;;;;;2.27;1.40;;;15.30;45.00;;;;;;5029620;28;20431;-45
2021/04/10 06:32:22;;;;;;;2.80;1.67;;;15.30;45.30;;;;;;5040652;28;20616;-43
2021/04/10 06:34:48;;;;;;;2.63;1.50;;;15.40;45.00;;;;;;5043160;28;20606;-44
2021/04/10 06:37:13;;;;;;;2.20;1.30;;;15.10;44.90;;;;;;5031275;28;20626;-44
2021/04/10 06:39:39;;;;;;;4.77;1.20;;;15.20;45.00;;;;;;5025310;28;20233;-43
2021/04/10 06:42:05;;;;;;;1.60;1.30;;;15.20;44.80;;;;;;5031532;28;20200;-44
2021/04/10 06:44:31;;;;;;;1.43;1.07;;;15.30;45.20;;;;;;5034470;28;20769;-43
2021/04/10 06:47:00;;;;;;;6.50;1.67;;;15.40;44.60;;;;;;5035018;28;20847;-45
2021/04/10 06:49:28;;;;;;;2.07;1.80;;;15.80;44.60;;;;;;5037507;28;21014;-44
2021/04/10 06:51:55;;;;;;;1.70;1.50;;;15.70;44.00;;;;;;5040407;28;20944;-45
2021/04/10 06:54:24;;;;;;;2.00;1.20;;;15.90;43.80;;;;;;5034409;28;21038;-43
2021/04/10 06:56:59;;;;;;;1.73;1.20;;;16.00;43.80;;;;;;5033966;28;20452;-44
2021/04/10 06:59:35;;;;;;;2.33;1.73;;;16.10;43.50;;;;;;5040766;28;20474;-43
2021/04/10 07:02:01;;;;;;;2.47;1.40;;;16.20;43.40;;;;;;5040404;28;20451;-43
2021/04/10 07:04:27;;;;;;;2.10;1.10;;;16.10;43.50;;;;;;5044452;28;20515;-43
2021/04/10 07:06:53;;;;;;;2.67;1.40;;;16.10;43.70;;;;;;5037845;28;20915;-43
2021/04/10 07:09:18;;;;;;;6.20;1.50;;;16.10;43.60;;;;;;5040366;28;20272;-43
2021/04/10 07:11:44;;;;;;;3.80;1.50;;;16.20;43.60;;;;;;5035600;28;20648;-45
2021/04/10 07:14:09;;;;;;;2.40;1.53;;;16.30;43.50;;;;;;5033946;28;20255;-44
2021/04/10 07:16:39;;;;;;;1.50;1.30;;;16.10;44.20;;;;;;5033514;28;20655;-42
2021/04/10 07:19:09;;;;;;;4.83;1.23;;;16.20;44.20;;;;;;5021778;28;20261;-41
2021/04/10 07:21:35;;;;;;;1.50;1.30;;;16.40;44.00;;;;;;5019786;28;20436;-42
2021/04/10 07:24:01;;;;;;;1.50;1.40;;;16.40;44.00;;;;;;5019474;28;20467;-42
2021/04/10 07:26:48;;;;;;;1.93;1.40;;;16.60;44.40;;;;;;5028678;28;20239;-42
2021/04/10 07:29:31;;;;;;;1.70;1.57;;;16.60;44.30;;;;;;5031910;28;20857;-43
2021/04/10 07:31:57;;;;;;;1.70;1.60;;;16.60;44.80;;;;;;5036900;28;20438;-41
2021/04/10 07:34:23;;;;;;;2.20;1.57;;;16.60;45.10;;;;;;5023211;28;20982;-42
2021/04/10 07:37:02;;;;;;;1.60;1.50;;;16.30;44.80;;;;;;5018223;28;20555;-41
2021/04/10 07:39:28;;;;;;;2.53;1.50;;;16.40;45.30;;;;;;5027856;28;20570;-41
2021/04/10 07:42:04;;;;;;;2.83;1.80;;;16.30;45.70;;;;;;5018540;28;21004;-43
2021/04/10 07:44:40;;;;;;;2.23;1.37;;;16.10;45.80;;;;;;5019148;28;20203;-44
2021/04/10 07:47:08;;;;;;;2.70;1.13;;;15.90;46.10;;;;;;5023682;28;20432;-45
2021/04/10 07:49:36;;;;;;;2.90;1.40;;;15.90;46.40;;;;;;5021628;28;20441;-44
2021/04/10 07:52:04;;;;;;;3.13;1.70;;;15.90;46.20;;;;;;5022101;28;20551;-44
2021/04/10 07:54:38;;;;;;;2.20;1.60;;;15.70;46.40;;;;;;5021765;28;20459;-42
2021/04/10 07:57:05;;;;;;;2.23;1.37;;;15.60;46.70;;;;;;5022738;28;20860;-41
2021/04/10 07:59:53;;;;;;;2.60;1.70;;;15.50;46.70;;;;;;5024735;28;20479;-42
2021/04/10 08:02:20;;;;;;;1.80;1.20;;;15.50;46.70;;;;;;5030308;28;20514;-43
2021/04/10 08:04:56;;;;;;;1.40;1.30;;;15.60;46.80;;;;;;5017827;28;20441;-42
2021/04/10 08:07:25;;;;;;;1.80;1.20;;;15.70;46.50;;;;;;5016974;28;20447;-41
2021/04/10 08:10:05;;;;;;;1.90;1.13;;;15.70;46.30;;;;;;5021545;28;20498;-45
2021/04/10 08:12:33;;;;;;;1.33;1.23;;;15.70;46.70;;;;;;5022637;28;20456;-42
2021/04/10 08:14:59;;;;;;;2.97;2.73;;;15.70;46.20;;;;;;5018720;28;20516;-42
2021/04/10 08:17:36;;;;;;;3.23;1.53;;;15.70;46.20;;;;;;5020786;28;21078;-44
2021/04/10 08:20:27;;;;;;;4.13;1.80;;;15.70;46.10;;;;;;5018390;28;20483;-45
2021/04/10 08:23:14;;;;;;;4.30;2.20;;;15.80;46.10;;;;;;5021622;28;20476;-44
2021/04/10 08:25:39;;;;;;;2.43;1.87;;;15.70;46.30;;;;;;5030836;28;21369;-44
2021/04/10 08:28:05;;;;;;;4.50;1.70;;;15.60;47.10;;;;;;5017868;28;20543;-45
2021/04/10 08:30:31;;;;;;;4.23;1.30;;;15.50;47.80;;;;;;5022182;28;20193;-42
2021/04/10 08:32:57;;;;;;;1.63;1.50;;;15.40;48.90;;;;;;5030710;28;20773;-41
2021/04/10 08:35:22;;;;;;;2.43;2.03;;;15.30;49.70;;;;;;5022168;28;20194;-43
2021/04/10 08:37:57;;;;;;;3.10;1.77;;;15.30;50.60;;;;;;5022331;28;20804;-41
2021/04/10 08:40:23;;;;;;;3.30;3.00;;;15.10;50.80;;;;;;5018304;28;20228;-42
2021/04/10 08:42:49;;;;;;;1.93;1.70;;;15.20;51.70;;;;;;5029788;28;21935;-41
2021/04/10 08:45:15;;;;;;;1.60;1.50;;;15.20;51.20;;;;;;5027081;28;20454;-41
2021/04/10 08:47:42;;;;;;;1.80;1.57;;;15.40;51.10;;;;;;5026418;28;20515;-41
2021/04/10 08:50:12;;;;;;;2.90;1.53;;;15.50;50.60;;;;;;5018762;28;20190;-42
2021/04/10 08:52:38;;;;;;;2.57;1.80;;;15.80;50.50;;;;;;5019267;28;20457;-41
2021/04/10 08:55:06;;;;;;;3.37;1.43;;;16.00;50.20;;;;;;5016672;28;20429;-42
2021/04/10 08:57:42;;;;;;;3.17;1.63;;;16.10;49.70;;;;;;5016206;28;20441;-41
2021/04/10 09:00:25;;;;;;;2.03;1.83;;;16.00;49.80;;;;;;5026737;28;20491;-43
2021/04/10 09:02:55;;;;;;;3.50;1.97;;;16.00;49.50;;;;;;5030940;28;20432;-42
2021/04/10 09:05:21;;;;;;;2.90;1.57;;;15.90;49.90;;;;;;5020336;28;20442;-43
2021/04/10 09:07:47;;;;;;;3.20;1.47;;;15.80;50.10;;;;;;5027013;28;20801;-41
2021/04/10 09:10:38;;;;;;;4.00;1.50;;;15.80;50.20;;;;;;5043027;28;20436;-44
2021/04/10 09:13:10;;;;;;;4.10;2.00;;;15.90;50.10;;;;;;5017854;28;20646;-42
2021/04/10 09:15:36;;;;;;;1.87;1.77;;;16.10;50.30;;;;;;5022586;28;21102;-43
2021/04/10 09:18:05;;;;;;;3.30;1.40;;;16.20;50.00;;;;;;5021998;28;20473;-42
2021/04/10 09:20:46;;;;;;;1.57;1.47;;;16.30;49.10;;;;;;5018783;28;20878;-44
2021/04/10 09:23:33;;;;;;;3.47;2.50;;;16.30;48.50;;;;;;5020165;28;22334;-42
2021/04/10 09:26:12;;;;;;;2.63;1.40;;;16.30;49.30;;;;;;5028701;28;20546;-42
2021/04/10 09:28:56;;;;;;;3.30;2.80;;;16.50;49.10;;;;;;5023906;28;20804;-42
2021/04/10 09:31:41;;;;;;;2.53;2.30;;;16.50;49.70;;;;;;5016467;28;20440;-43
2021/04/10 09:34:54;;;;;;;3.73;2.30;;;16.60;49.40;;;;;;5028937;28;20793;-41
2021/04/10 09:37:19;;;;;;;4.07;3.57;;;16.80;49.50;;;;;;5014362;28;20440;-41
2021/04/10 09:40:05;;;;;;;5.20;3.27;;;16.60;49.60;;;;;;5019973;28;20496;-42
2021/04/10 09:45:23;;;;;;;5.50;2.40;;;16.40;50.00;;;;;;5029496;28;20454;-41
2021/04/10 09:47:55;;;;;;;5.57;3.20;;;16.40;49.80;;;;;;5024906;28;20521;-41
2021/04/10 09:50:32;;;;;;;3.77;3.03;;;16.60;49.20;;;;;;5027124;28;20440;-41
2021/04/10 09:53:04;;;;;;;3.77;2.87;;;16.80;48.30;;;;;;5018926;28;20444;-42
2021/04/10 09:55:32;;;;;;;4.20;2.77;;;17.00;48.30;;;;;;5024420;28;20935;-42
2021/04/10 09:58:04;;;;;;;3.20;2.03;;;16.90;48.20;;;;;;5024501;28;20447;-44
2021/04/10 10:00:38;;;;;;;3.97;2.67;;;16.90;48.10;;;;;;5001348;28;20491;-42
2021/04/10 10:03:08;;;;;;;3.07;2.43;;;17.10;48.10;;;;;;5026474;28;20438;-42
2021/04/10 10:05:54;;;;;;;4.97;2.87;;;17.10;47.90;;;;;;5027961;28;20792;-41
2021/04/10 10:08:23;;;;;;;3.17;2.23;;;17.00;48.10;;;;;;5027062;28;20943;-41
2021/04/10 10:10:51;;;;;;;3.97;2.17;;;16.90;48.20;;;;;;5021576;28;20538;-42
2021/04/10 10:13:19;;;;;;;2.10;1.90;;;16.70;48.60;;;;;;5021930;28;20805;-41
2021/04/10 10:15:46;;;;;;;3.80;2.40;;;16.60;48.80;;;;;;5029368;28;20942;-43
2021/04/10 10:18:13;;;;;;;3.57;2.17;;;16.50;49.50;;;;;;5020950;28;21011;-43
2021/04/10 10:20:39;;;;;;;6.00;2.70;;;16.40;49.60;;;;;;5022018;28;20546;-42
2021/04/10 10:23:15;;;;;;;2.50;1.87;;;16.50;49.50;;;;;;5018987;28;20424;-42
2021/04/10 10:25:41;;;;;;;3.33;2.27;;;16.70;48.40;;;;;;5020828;28;20202;-42
2021/04/10 10:28:06;;;;;;;2.17;1.80;;;16.50;48.30;;;;;;5028426;28;20458;-43
2021/04/10 10:30:36;;;;;;;10.33;3.07;;;16.30;49.10;;;;;;5025096;28;20637;-44
2021/04/10 10:33:05;;;;;;;2.73;2.00;;;16.50;48.80;;;;;;5022868;28;20212;-42
2021/04/10 10:35:32;;;;;;;4.40;1.90;;;16.40;48.80;;;;;;5024003;28;20457;-43
2021/04/10 10:38:06;;;;;;;2.90;2.20;;;16.50;48.70;;;;;;5022049;28;20510;-42
2021/04/10 10:40:33;;;;;;;3.50;2.20;;;16.80;48.00;;;;;;5026372;28;20524;-42
2021/04/10 10:43:07;;;;;;;1.97;1.40;;;17.10;48.00;;;;;;5022340;28;20436;-43
2021/04/10 10:45:51;;;;;;;1.73;1.60;;;17.20;46.70;;;;;;5024683;28;20797;-42
2021/04/10 10:48:17;;;;;;;2.07;1.87;;;17.30;46.70;;;;;;5017826;28;20809;-43
2021/04/10 10:50:44;;;;;;;2.90;1.53;;;17.30;46.90;;;;;;5027637;28;20437;-43
2021/04/10 10:53:21;;;;;;;4.07;2.10;;;17.40;47.00;;;;;;5017533;28;20448;-42
2021/04/10 10:56:20;;;;;;;1.30;1.20;;;17.40;46.60;;;;;;5022416;28;20459;-42
2021/04/10 10:58:53;;;;;;;2.87;2.23;;;17.50;46.10;;;;;;5026940;28;20451;-43
2021/04/10 11:01:23;;;;;;;2.83;1.40;;;17.60;45.40;;;;;;5017614;28;20484;-42
2021/04/10 11:03:51;;;;;;;2.50;1.47;;;17.50;44.20;;;;;;5029682;28;20443;-43
2021/04/10 11:06:19;;;;;;;1.20;1.10;;;17.60;44.60;;;;;;5031010;28;20444;-47
2021/04/10 11:08:46;;;;;;;1.73;1.63;;;17.70;44.50;;;;;;5033469;28;20905;-43
2021/04/10 11:11:13;;;;;;;2.07;1.77;;;17.70;44.40;;;;;;5032081;28;20428;-44
2021/04/10 11:13:43;;;;;;;2.60;1.50;;;17.70;44.40;;;;;;5021493;28;20963;-42
2021/04/10 11:16:10;;;;;;;1.57;1.47;;;17.80;44.40;;;;;;5026036;28;20491;-45
2021/04/10 11:18:35;;;;;;;3.13;1.30;;;17.80;44.10;;;;;;5026197;28;20555;-45
2021/04/10 11:21:20;;;;;;;1.90;1.77;;;17.80;44.30;;;;;;5016756;28;20971;-44
2021/04/10 11:24:10;;;;;;;1.83;1.40;;;17.90;44.00;;;;;;5031550;28;20875;-45
2021/04/10 11:26:39;;;;;;;1.50;1.40;;;17.90;43.60;;;;;;5026400;28;20448;-45
2021/04/10 11:29:19;;;;;;;3.30;1.93;;;17.80;43.40;;;;;;5017892;28;20441;-44
2021/04/10 11:32:02;;;;;;;1.40;1.30;;;18.00;43.50;;;;;;5021861;28;20495;-48
2021/04/10 11:34:36;;;;;;;1.97;1.30;;;18.00;42.50;;;;;;5032318;28;20482;-47
2021/04/10 11:37:03;;;;;;;4.73;1.60;;;18.10;42.70;;;;;;5031034;28;20432;-44
2021/04/10 11:39:30;;;;;;;1.43;1.20;;;18.10;42.70;;;;;;5028256;28;20519;-47
2021/04/10 11:41:56;;;;;;;2.00;1.37;;;18.10;42.10;;;;;;5023373;28;20452;-43
2021/04/10 11:44:23;;;;;;;1.60;1.50;;;18.20;41.70;;;;;;5030834;28;20447;-45
2021/04/10 11:46:59;;;;;;;1.40;1.30;;;18.40;41.40;;;;;;5022029;28;20654;-43
2021/04/10 11:49:26;;;;;;;1.20;1.10;;;18.40;40.60;;;;;;5026287;28;20471;-43
2021/04/10 11:51:51;;;;;;;1.13;0.97;;;18.30;40.90;;;;;;5012553;28;20444;-42
2021/04/10 11:54:34;;;;;;;5.10;1.23;;;18.40;41.00;;;;;;5028704;28;20431;-44
2021/04/10 11:57:00;;;;;;;1.10;1.00;;;18.60;40.90;;;;;;5029444;28;20604;-41
2021/04/10 11:59:33;;;;;;;1.67;1.50;;;18.60;40.50;;;;;;5028642;28;20479;-43
2021/04/10 12:02:02;;;;;;;3.37;2.23;;;18.50;40.10;;;;;;5030915;28;20231;-43
2021/04/10 12:04:40;;;;;;;1.73;1.47;;;18.60;40.20;;;;;;5026484;28;20829;-45
2021/04/10 12:07:13;;;;;;;1.43;1.33;;;18.70;40.70;;;;;;5024328;28;20491;-43
2021/04/10 12:09:40;;;;;;;2.13;1.20;;;18.60;40.80;;;;;;5030886;28;20447;-43
2021/04/10 12:12:11;;;;;;;2.23;1.27;;;18.60;40.20;;;;;;5022912;28;20440;-44
2021/04/10 12:14:40;;;;;;;1.37;1.27;;;18.70;40.50;;;;;;5028827;28;20776;-42
2021/04/10 12:17:06;;;;;;;1.83;1.27;;;18.90;39.80;;;;;;5031506;28;20471;-42
2021/04/10 12:19:32;;;;;;;2.80;1.20;;;18.80;40.00;;;;;;5031387;28;20472;-43
2021/04/10 12:21:58;;;;;;;1.97;1.10;;;18.30;40.20;;;;;;5025237;28;20277;-43
2021/04/10 12:24:24;;;;;;;3.70;1.20;;;18.30;41.00;;;;;;5025595;28;20440;-43
2021/04/10 12:26:49;;;;;;;2.57;1.30;;;18.50;40.80;;;;;;5031335;28;20799;-42
2021/04/10 12:29:15;;;;;;;1.40;1.30;;;18.70;40.50;;;;;;5027653;28;20193;-44
2021/04/10 12:31:41;;;;;;;1.57;1.27;;;18.70;40.70;;;;;;5024308;28;20197;-42
2021/04/10 12:34:07;;;;;;;2.10;1.60;;;19.00;40.50;;;;;;5026576;28;20201;-43
2021/04/10 12:36:33;;;;;;;2.63;1.30;;;19.30;40.20;;;;;;5028092;28;20923;-45
2021/04/10 12:38:59;;;;;;;2.83;1.50;;;19.60;39.30;;;;;;5020767;28;20439;-42
2021/04/10 12:41:25;;;;;;;3.03;1.80;;;19.70;39.10;;;;;;5025986;28;20471;-47
2021/04/10 12:43:52;;;;;;;3.93;1.70;;;19.80;38.60;;;;;;5023958;28;20867;-45
2021/04/10 12:46:19;;;;;;;1.90;1.60;;;19.60;38.10;;;;;;5030220;28;20436;-42
2021/04/10 12:48:45;;;;;;;9.37;1.57;;;19.80;38.70;;;;;;5031106;28;20468;-47
2021/04/10 12:51:11;;;;;;;1.60;1.50;;;19.80;39.80;;;;;;5025152;28;20474;-43
2021/04/10 12:53:37;;;;;;;2.83;1.53;;;20.20;38.60;;;;;;5027366;28;20936;-44
2021/04/10 12:56:03;;;;;;;1.27;1.10;;;20.30;37.90;;;;;;5021538;28;20201;-47
2021/04/10 12:58:28;;;;;;;1.30;1.20;;;20.50;37.60;;;;;;5023476;28;20236;-43